Time;durP1;ratioP1;P1;durP2;ratioP2;P2;SDS_P1;SDS_P2;PMS_P1;PMS_P2;Temp;Humidity;BMP_temperature;BMP_pressure;BME280_temperature;BME280_humidity;BME280_pressure;Samples;Min_cycle;Max_cycle;Signal;HPM_P1;HPM_P2
2023/06/08 00:02:06;;;;;;;;;;;;;;;10.70;100.00;99836.28;5034236;28;1894;-62
2023/06/08 00:04:33;;;;;;;;;;;;;;;10.69;100.00;99833.91;5034540;28;840;-62
2023/06/08 00:07:03;;;;;;;;;;;;;;;10.66;100.00;99826.44;5033865;28;819;-62
2023/06/08 00:09:30;;;;;;;;;;;;;;;10.64;100.00;99832.34;5034113;28;1059;-62
2023/06/08 00:11:58;;;;;;;;;;;;;;;10.61;100.00;99825.66;5033470;28;1332;-62
2023/06/08 00:14:25;;;;;;;;;;;;;;;10.60;100.00;99812.25;5033680;28;887;-63
2023/06/08 00:16:52;;;;;;;;;;;;;;;10.59;100.00;99813.44;5033516;28;935;-62
2023/06/08 00:19:19;;;;;;;;;;;;;;;10.51;100.00;99803.59;5033582;28;856;-62
2023/06/08 00:21:48;;;;;;;;;;;;;;;10.45;100.00;99803.22;5033446;28;1918;-63
2023/06/08 00:24:20;;;;;;;;;;;;;;;10.41;100.00;99806.03;5033524;28;918;-62
2023/06/08 00:26:46;;;;;;;;;;;;;;;10.35;100.00;99804.09;5033358;28;832;-62
2023/06/08 00:29:13;;;;;;;;;;;;;;;10.39;100.00;99802.06;5033346;28;858;-62
2023/06/08 00:31:40;;;;;;;;;;;;;;;10.48;100.00;99804.41;5033362;28;815;-62
2023/06/08 00:34:06;;;;;;;;;;;;;;;10.46;100.00;99804.03;5033310;28;812;-62
2023/06/08 00:36:33;;;;;;;;;;;;;;;10.40;100.00;99803.66;5033299;28;871;-62
2023/06/08 00:39:00;;;;;;;;;;;;;;;10.45;100.00;99792.16;5033183;28;875;-61
2023/06/08 00:41:27;;;;;;;;;;;;;;;10.56;100.00;99792.13;5031877;28;1890;-62
2023/06/08 00:43:53;;;;;;;;;;;;;;;10.59;100.00;99797.63;5033086;28;910;-62
2023/06/08 00:46:21;;;;;;;;;;;;;;;10.59;100.00;99797.63;5033065;28;882;-61
2023/06/08 00:48:48;;;;;;;;;;;;;;;10.57;100.00;99796.47;5033340;28;903;-61
2023/06/08 00:51:16;;;;;;;;;;;;;;;10.56;100.00;99792.94;5032740;28;800;-62
2023/06/08 00:53:42;;;;;;;;;;;;;;;10.54;100.00;99795.31;5032943;28;828;-62
2023/06/08 00:56:11;;;;;;;;;;;;;;;10.58;100.00;99792.50;5032830;28;872;-62
2023/06/08 00:58:38;;;;;;;;;;;;;;;10.60;100.00;99793.69;5032781;28;797;-61
2023/06/08 01:01:04;;;;;;;;;;;;;;;10.63;100.00;99783.81;5032835;28;1018;-61
2023/06/08 01:03:38;;;;;;;;;;;;;;;10.65;100.00;99784.19;5032648;28;1943;-62
2023/06/08 01:06:08;;;;;;;;;;;;;;;10.64;100.00;99779.84;5032765;28;946;-61
2023/06/08 01:08:52;;;;;;;;;;;;;;;10.68;100.00;99777.06;5032628;28;895;-62
2023/06/08 01:11:38;;;;;;;;;;;;;;;10.69;100.00;99779.44;5032645;28;1166;-62
2023/06/08 01:14:31;;;;;;;;;;;;;;;10.67;100.00;99779.06;5017769;28;1465;-61
2023/06/08 01:17:00;;;;;;;;;;;;;;;10.66;100.00;99777.47;5002347;28;1309;-61
2023/06/08 01:19:47;;;;;;;;;;;;;;;10.65;100.00;99783.38;5033029;28;792;-61
2023/06/08 01:22:13;;;;;;;;;;;;;;;10.60;100.00;99781.84;5032481;28;1902;-61
2023/06/08 01:24:40;;;;;;;;;;;;;;;10.56;100.00;99783.81;5032339;28;832;-61
2023/06/08 01:27:08;;;;;;;;;;;;;;;10.53;100.00;99776.34;5032569;28;828;-61
2023/06/08 01:29:35;;;;;;;;;;;;;;;10.48;100.00;99776.78;5032294;28;914;-61
2023/06/08 01:32:02;;;;;;;;;;;;;;;10.44;100.00;99773.25;5032176;28;824;-61
2023/06/08 01:34:29;;;;;;;;;;;;;;;10.43;100.00;99772.44;5032205;28;986;-61
2023/06/08 01:37:05;;;;;;;;;;;;;;;10.41;100.00;99777.59;5032030;28;823;-61
2023/06/08 01:39:34;;;;;;;;;;;;;;;10.38;100.00;99773.66;5032200;28;950;-61
2023/06/08 01:42:05;;;;;;;;;;;;;;;10.36;100.00;99775.25;5032054;28;1882;-61
2023/06/08 01:44:36;;;;;;;;;;;;;;;10.35;100.00;99776.44;5031904;28;922;-62
2023/06/08 01:47:05;;;;;;;;;;;;;;;10.32;100.00;99778.03;5032000;28;875;-61
2023/06/08 01:49:32;;;;;;;;;;;;;;;10.29;100.00;99778.03;5032019;28;840;-61
2023/06/08 01:51:59;;;;;;;;;;;;;;;10.23;100.00;99780.41;5030617;28;2142;-62
2023/06/08 01:54:26;;;;;;;;;;;;;;;10.17;100.00;99782.00;5031997;28;852;-61
2023/06/08 01:56:52;;;;;;;;;;;;;;;10.13;100.00;99784.75;5031817;28;867;-61
2023/06/08 01:59:19;;;;;;;;;;;;;;;10.12;100.00;99774.16;5031753;28;819;-62
2023/06/08 02:01:45;;;;;;;;;;;;;;;10.12;100.00;99779.66;5031663;28;1886;-62
2023/06/08 02:04:12;;;;;;;;;;;;;;;10.12;100.00;99780.44;5031331;28;883;-62
2023/06/08 02:06:39;;;;;;;;;;;;;;;10.14;100.00;99780.06;5032000;28;918;-61
2023/06/08 02:09:05;;;;;;;;;;;;;;;10.14;100.00;99782.81;5031574;28;1055;-62
2023/06/08 02:11:33;;;;;;;;;;;;;;;10.18;100.00;99780.84;5031278;28;1393;-61
2023/06/08 02:13:59;;;;;;;;;;;;;;;10.21;100.00;99783.56;5031564;28;843;-61
2023/06/08 02:16:26;;;;;;;;;;;;;;;10.25;100.00;99788.28;5031571;28;820;-61
2023/06/08 02:18:53;;;;;;;;;;;;;;;10.29;100.00;99787.13;5031564;28;859;-61
2023/06/08 02:21:20;;;;;;;;;;;;;;;10.33;100.00;99787.91;5031677;28;1969;-62
2023/06/08 02:23:46;;;;;;;;;;;;;;;10.35;100.00;99796.56;5031361;28;832;-62
2023/06/08 02:26:13;;;;;;;;;;;;;;;10.34;100.00;99792.22;5031472;28;910;-61
2023/06/08 02:28:40;;;;;;;;;;;;;;;10.38;100.00;99801.28;5031348;28;972;-61
2023/06/08 02:31:07;;;;;;;;;;;;;;;10.43;100.00;99794.53;5031611;28;868;-61
2023/06/08 02:33:34;;;;;;;;;;;;;;;10.48;100.00;99796.91;5031722;28;820;-61
2023/06/08 02:36:00;;;;;;;;;;;;;;;10.49;100.00;99801.22;5031294;28;844;-61
2023/06/08 02:38:27;;;;;;;;;;;;;;;10.49;100.00;99801.22;5031375;28;828;-62
2023/06/08 02:40:54;;;;;;;;;;;;;;;10.50;100.00;99799.28;5031286;28;930;-62
2023/06/08 02:43:21;;;;;;;;;;;;;;;10.51;100.00;99801.63;5031149;28;1890;-62
2023/06/08 02:45:48;;;;;;;;;;;;;;;10.56;100.00;99795.69;5031605;28;891;-62
2023/06/08 02:48:15;;;;;;;;;;;;;;;10.59;100.00;99803.16;5031256;28;839;-62
2023/06/08 02:50:41;;;;;;;;;;;;;;;10.56;100.00;99795.69;5031233;28;915;-62
2023/06/08 02:53:08;;;;;;;;;;;;;;;10.52;100.00;99792.16;5031080;28;816;-62
2023/06/08 02:55:36;;;;;;;;;;;;;;;10.51;100.00;99798.06;5031208;28;820;-62
2023/06/08 02:58:03;;;;;;;;;;;;;;;10.50;100.00;99794.53;5031156;28;887;-62
2023/06/08 03:00:30;;;;;;;;;;;;;;;10.53;100.00;99793.72;5031264;28;886;-62
2023/06/08 03:03:00;;;;;;;;;;;;;;;10.62;100.00;99793.28;5030995;28;1890;-61
2023/06/08 03:05:28;;;;;;;;;;;;;;;10.67;100.00;99786.53;5031086;28;1080;-61
2023/06/08 03:07:54;;;;;;;;;;;;;;;10.68;100.00;99794.44;5030996;28;1049;-61
2023/06/08 03:10:21;;;;;;;;;;;;;;;10.67;100.00;99789.28;5031322;28;1051;-61
2023/06/08 03:12:47;;;;;;;;;;;;;;;10.70;100.00;99796.81;5031257;28;1395;-62
2023/06/08 03:15:22;;;;;;;;;;;;;;;10.71;100.00;99799.16;5032991;28;867;-62
2023/06/08 03:17:49;;;;;;;;;;;;;;;10.71;100.00;99793.63;5034831;28;835;-63
2023/06/08 03:20:17;;;;;;;;;;;;;;;10.70;100.00;99794.81;5034696;28;883;-62
2023/06/08 03:22:46;;;;;;;;;;;;;;;10.70;100.00;99800.34;5034504;28;1973;-62
2023/06/08 03:25:15;;;;;;;;;;;;;;;10.75;100.00;99796.38;5034644;28;899;-61
2023/06/08 03:27:42;;;;;;;;;;;;;;;10.83;100.00;99804.22;5034609;28;862;-61
2023/06/08 03:30:08;;;;;;;;;;;;;;;10.94;100.00;99800.59;5034437;28;917;-61
2023/06/08 03:32:36;;;;;;;;;;;;;;;11.02;100.00;99799.38;5034499;28;852;-61
2023/06/08 03:35:03;;;;;;;;;;;;;;;11.09;100.00;99813.13;5034485;28;891;-61
2023/06/08 03:37:30;;;;;;;;;;;;;;;11.21;100.00;99812.66;5034356;28;902;-61
2023/06/08 03:39:57;;;;;;;;;;;;;;;11.40;100.00;99810.56;5033204;28;1285;-62
2023/06/08 03:42:24;;;;;;;;;;;;;;;11.53;100.00;99813.59;5034254;28;1911;-62
2023/06/08 03:44:53;;;;;;;;;;;;;;;11.65;100.00;99810.34;5034235;28;820;-62
2023/06/08 03:47:20;;;;;;;;;;;;;;;11.82;100.00;99809.38;5034275;28;848;-62
2023/06/08 03:49:47;;;;;;;;;;;;;;;11.96;100.00;99804.91;5034356;28;852;-62
2023/06/08 03:52:13;;;;;;;;;;;;;;;12.09;100.00;99807.94;5034337;28;824;-62
2023/06/08 03:54:40;;;;;;;;;;;;;;;12.24;100.00;99806.56;5034060;28;804;-62
2023/06/08 03:57:07;;;;;;;;;;;;;;;12.35;100.00;99812.00;5034033;28;812;-61
2023/06/08 03:59:34;;;;;;;;;;;;;;;12.40;100.00;99812.34;5033874;28;1034;-61
2023/06/08 04:02:00;;;;;;;;;;;;;;;12.57;100.00;99812.53;5034058;28;1886;-62
2023/06/08 04:04:29;;;;;;;;;;;;;;;12.87;100.00;99815.28;5033902;28;820;-62
2023/06/08 04:07:00;;;;;;;;;;;;;;;13.13;100.00;99812.91;5033847;28;934;-62
2023/06/08 04:09:29;;;;;;;;;;;;;;;13.35;100.00;99807.06;5033803;28;943;-62
2023/06/08 04:11:56;;;;;;;;;;;;;;;13.45;100.00;99811.66;5032152;28;1259;-62
2023/06/08 04:14:22;;;;;;;;;;;;;;;13.50;100.00;99813.94;5033962;28;868;-61
2023/06/08 04:16:49;;;;;;;;;;;;;;;13.59;100.00;99808.66;5033629;28;907;-62
2023/06/08 04:19:16;;;;;;;;;;;;;;;13.75;100.00;99819.06;5033608;28;844;-63
2023/06/08 04:21:42;;;;;;;;;;;;;;;13.92;100.00;99819.97;5033728;28;1906;-62
2023/06/08 04:24:10;;;;;;;;;;;;;;;14.09;100.00;99824.41;5033781;28;925;-61
2023/06/08 04:26:37;;;;;;;;;;;;;;;14.21;100.00;99822.19;5033066;28;899;-63
2023/06/08 04:29:04;;;;;;;;;;;;;;;14.36;100.00;99826.28;5033404;28;844;-62
2023/06/08 04:31:31;;;;;;;;;;;;;;;14.49;100.00;99827.22;5033352;28;891;-61
2023/06/08 04:33:58;;;;;;;;;;;;;;;14.62;100.00;99826.59;5033610;28;828;-62
2023/06/08 04:36:25;;;;;;;;;;;;;;;14.79;100.00;99833.00;5033256;28;992;-62
2023/06/08 04:38:52;;;;;;;;;;;;;;;14.99;100.00;99835.72;5033270;28;875;-62
2023/06/08 04:41:19;;;;;;;;;;;;;;;15.20;100.00;99837.25;5033205;28;832;-63
2023/06/08 04:43:49;;;;;;;;;;;;;;;15.38;100.00;99834.78;5031746;28;1893;-62
2023/06/08 04:46:16;;;;;;;;;;;;;;;15.63;100.00;99836.19;5033380;28;891;-62
2023/06/08 04:48:43;;;;;;;;;;;;;;;15.81;100.00;99825.41;5033075;28;895;-62
2023/06/08 04:51:10;;;;;;;;;;;;;;;16.07;100.00;99840.25;5032866;28;835;-62
2023/06/08 04:53:37;;;;;;;;;;;;;;;16.29;100.00;99846.03;5033031;28;1064;-62
2023/06/08 04:56:04;;;;;;;;;;;;;;;16.49;100.00;99839.50;5032852;28;875;-62
2023/06/08 04:58:32;;;;;;;;;;;;;;;16.65;100.00;99842.22;5031591;28;1517;-62
2023/06/08 05:00:59;;;;;;;;;;;;;;;16.80;100.00;99841.81;5032849;28;894;-63
2023/06/08 05:03:26;;;;;;;;;;;;;;;16.98;100.00;99841.28;5032760;28;1955;-63
2023/06/08 05:05:54;;;;;;;;;;;;;;;17.18;100.00;99830.69;5032829;28;847;-63
2023/06/08 05:08:20;;;;;;;;;;;;;;;17.40;100.00;99833.59;5032935;28;834;-62
2023/06/08 05:10:47;;;;;;;;;;;;;;;17.50;100.00;99828.88;5032956;28;1034;-63
2023/06/08 05:13:15;;;;;;;;;;;;;;;17.68;100.00;99837.44;5012887;28;888;-62
2023/06/08 05:15:41;;;;;;;;;;;;;;;18.09;100.00;99846.06;5012764;28;833;-62
2023/06/08 05:18:08;;;;;;;;;;;;;;;18.48;100.00;99846.72;5013131;28;855;-62
2023/06/08 05:20:37;;;;;;;;;;;;;;;18.91;100.00;99848.69;5012711;28;1254;-62
2023/06/08 05:23:03;;;;;;;;;;;;;;;19.15;100.00;99839.78;5012758;28;1914;-62
2023/06/08 05:25:30;;;;;;;;;;;;;;;18.21;100.00;99844.47;5011467;28;1196;-63
2023/06/08 05:27:57;;;;;;;;;;;;;;;17.62;100.00;99839.25;5013598;28;824;-62
2023/06/08 05:30:25;;;;;;;;;;;;;;;17.48;100.00;99845.31;5012560;28;828;-62
2023/06/08 05:32:51;;;;;;;;;;;;;;;17.65;100.00;99845.97;5012959;28;824;-61
2023/06/08 05:35:18;;;;;;;;;;;;;;;18.11;100.00;99847.19;5012988;28;903;-62
2023/06/08 05:37:45;;;;;;;;;;;;;;;18.79;100.00;99851.59;5012084;28;836;-61
2023/06/08 05:40:12;;;;;;;;;;;;;;;19.42;100.00;99844.72;5012157;28;860;-61
2023/06/08 05:42:38;;;;;;;;;;;;;;;20.02;100.00;99845.47;5011660;28;1945;-64
2023/06/08 05:45:05;;;;;;;;;;;;;;;20.22;100.00;99845.00;5012433;28;892;-62
2023/06/08 05:47:32;;;;;;;;;;;;;;;20.29;100.00;99845.47;5011986;28;863;-61
2023/06/08 05:49:58;;;;;;;;;;;;;;;20.75;100.00;99837.00;5012221;28;868;-61
2023/06/08 05:52:24;;;;;;;;;;;;;;;21.16;100.00;99834.66;5011452;28;888;-62
2023/06/08 05:54:50;;;;;;;;;;;;;;;21.54;100.00;99832.47;5012391;28;875;-62
2023/06/08 05:57:16;;;;;;;;;;;;;;;22.07;100.00;99836.66;5008987;28;1525;-63
2023/06/08 05:59:41;;;;;;;;;;;;;;;22.80;100.00;99835.97;4995012;28;1362;-63
2023/06/08 06:02:07;;;;;;;;;;;;;;;23.80;100.00;99838.00;4992164;28;1882;-63
2023/06/08 06:04:35;;;;;;;;;;;;;;;24.58;100.00;99831.72;4992742;28;848;-63
2023/06/08 06:07:04;;;;;;;;;;;;;;;24.87;100.00;99832.75;4992709;28;883;-63
2023/06/08 06:09:30;;;;;;;;;;;;;;;25.02;100.00;99849.56;4992081;28;1027;-63
2023/06/08 06:11:56;;;;;;;;;;;;;;;25.27;100.00;99840.28;4998468;28;1261;-63
2023/06/08 06:14:23;;;;;;;;;;;;;;;25.02;100.00;99839.03;5011554;28;1006;-65
2023/06/08 06:16:50;;;;;;;;;;;;;;;23.99;100.00;99840.56;5011834;28;914;-64
2023/06/08 06:19:16;;;;;;;;;;;;;;;23.24;100.00;99840.03;5011804;28;848;-62
2023/06/08 06:21:43;;;;;;;;;;;;;;;22.47;100.00;99835.38;5011705;28;1910;-64
2023/06/08 06:24:10;;;;;;;;;;;;;;;22.39;100.00;99832.94;5011681;28;848;-61
2023/06/08 06:26:37;;;;;;;;;;;;;;;22.55;100.00;99826.09;5011754;28;876;-63
2023/06/08 06:29:04;;;;;;;;;;;;;;;23.00;100.00;99834.50;5011631;28;860;-62
2023/06/08 06:31:31;;;;;;;;;;;;;;;23.72;100.00;99830.44;5011724;28;852;-63
2023/06/08 06:33:57;;;;;;;;;;;;;;;24.13;100.00;99834.06;5011662;28;891;-63
2023/06/08 06:36:26;;;;;;;;;;;;;;;24.81;100.00;99832.69;5011656;28;879;-63
2023/06/08 06:38:54;;;;;;;;;;;;;;;25.60;97.05;99832.50;5011635;28;946;-63
2023/06/08 06:41:21;;;;;;;;;;;;;;;26.33;91.05;99821.47;5011515;28;908;-64
2023/06/08 06:43:48;;;;;;;;;;;;;;;27.78;81.25;99819.06;5011539;28;1954;-63
2023/06/08 06:55:44;;;;;;;;;;;;;;;29.46;62.04;99815.56;5015707;28;681;-65
2023/06/08 06:58:12;;;;;;;;;;;;;;;29.88;57.54;99821.84;5015375;28;934;-65
2023/06/08 07:00:39;;;;;;;;;;;;;;;29.63;56.53;99815.38;5015299;28;871;-66
2023/06/08 07:03:06;;;;;;;;;;;;;;;28.30;60.11;99818.31;5015307;28;1951;-65
2023/06/08 07:05:33;;;;;;;;;;;;;;;27.86;58.48;99814.41;5015194;28;836;-65
2023/06/08 07:07:59;;;;;;;;;;;;;;;26.75;59.92;99807.63;5015232;28;984;-64
2023/06/08 07:10:26;;;;;;;;;;;;;;;25.45;64.25;99815.69;5013879;28;993;-65
2023/06/08 07:12:52;;;;;;;;;;;;;;;27.28;60.60;99808.63;5014926;28;1205;-65
2023/06/08 07:15:19;;;;;;;;;;;;;;;28.77;55.19;99811.03;5015020;28;855;-66
2023/06/08 07:17:46;;;;;;;;;;;;;;;29.84;53.41;99802.19;5015175;28;801;-64
2023/06/08 07:20:13;;;;;;;;;;;;;;;30.21;52.85;99823.47;5014778;28;871;-64
2023/06/08 07:22:40;;;;;;;;;;;;;;;30.71;49.35;99815.50;5014883;28;1918;-66
2023/06/08 07:25:07;;;;;;;;;;;;;;;31.69;48.74;99817.66;5014822;28;883;-65
2023/06/08 07:27:34;;;;;;;;;;;;;;;32.18;41.49;99813.53;5014833;28;883;-64
2023/06/08 07:30:01;;;;;;;;;;;;;;;32.34;38.46;99818.06;5014838;28;824;-66
2023/06/08 07:32:29;;;;;;;;;;;;;;;32.53;37.58;99808.56;5014771;28;879;-65
2023/06/08 07:34:56;;;;;;;;;;;;;;;32.83;36.84;99813.81;5014666;28;911;-65
2023/06/08 07:37:22;;;;;;;;;;;;;;;32.59;37.02;99812.06;5014673;28;840;-65
2023/06/08 07:39:49;;;;;;;;;;;;;;;32.70;36.86;99811.78;5013359;28;1208;-65
2023/06/08 07:42:16;;;;;;;;;;;;;;;32.90;36.36;99810.28;5014437;28;1885;-66
2023/06/08 07:44:43;;;;;;;;;;;;;;;32.77;35.96;99810.31;5014707;28;836;-65
2023/06/08 07:47:10;;;;;;;;;;;;;;;32.47;35.03;99811.53;5014459;28;882;-63
2023/06/08 07:49:36;;;;;;;;;;;;;;;32.38;35.49;99799.81;5014373;28;835;-65
2023/06/08 07:52:03;;;;;;;;;;;;;;;32.08;36.00;99803.88;5014306;28;926;-63
2023/06/08 07:54:30;;;;;;;;;;;;;;;30.73;37.65;99805.06;5014307;28;865;-65
2023/06/08 07:56:56;;;;;;;;;;;;;;;28.46;41.90;99816.69;5014396;28;813;-65
2023/06/08 07:59:23;;;;;;;;;;;;;;;27.95;43.74;99809.72;5014243;28;809;-65
2023/06/08 08:01:50;;;;;;;;;;;;;;;28.48;42.81;99810.44;5013134;28;1981;-64
2023/06/08 08:04:15;;;;;;;;;;;;;;;29.37;42.13;99808.16;5014121;28;903;-63
2023/06/08 08:06:42;;;;;;;;;;;;;;;30.41;39.91;99810.00;5014112;28;879;-64
2023/06/08 08:09:09;;;;;;;;;;;;;;;30.98;38.44;99813.50;5013951;28;904;-64
2023/06/08 08:11:37;;;;;;;;;;;;;;;30.37;38.40;99820.97;5013814;28;1429;-64
2023/06/08 08:14:09;;;;;;;;;;;;;;;29.86;39.20;99813.06;5013945;28;840;-66
2023/06/08 08:16:36;;;;;;;;;;;;;;;28.42;42.44;99810.50;5013922;28;821;-66
2023/06/08 08:19:03;;;;;;;;;;;;;;;29.43;40.87;99811.72;5013732;28;829;-64
2023/06/08 08:21:30;;;;;;;;;;;;;;;28.87;40.71;99807.34;5013833;28;809;-64
2023/06/08 08:23:56;;;;;;;;;;;;;;;27.68;43.01;99809.31;5013631;28;1968;-65
2023/06/08 08:26:23;;;;;;;;;;;;;;;28.06;43.87;99796.25;5013755;28;887;-63
2023/06/08 08:28:50;;;;;;;;;;;;;;;29.39;39.12;99802.72;5013626;28;847;-65
2023/06/08 08:34:18;;;;;;;;;;;;;;;31.19;36.90;99795.75;5013707;28;666;-62
2023/06/08 08:36:45;;;;;;;;;;;;;;;31.06;37.98;99794.41;5013511;28;863;-63
2023/06/08 08:39:14;;;;;;;;;;;;;;;30.94;37.50;99795.94;5013560;28;895;-63
2023/06/08 08:41:41;;;;;;;;;;;;;;;30.05;38.31;99793.13;5013380;28;1886;-63
2023/06/08 08:44:09;;;;;;;;;;;;;;;30.36;38.47;99808.75;5013404;28;879;-63
2023/06/08 08:46:38;;;;;;;;;;;;;;;30.50;37.26;99803.91;5013366;28;844;-64
2023/06/08 08:49:08;;;;;;;;;;;;;;;30.03;38.37;99798.59;5013251;28;903;-65
2023/06/08 08:51:38;;;;;;;;;;;;;;;30.11;37.57;99788.88;5013348;28;910;-64
2023/06/08 08:54:05;;;;;;;;;;;;;;;29.23;39.17;99795.91;5013227;28;812;-63
2023/06/08 08:56:38;;;;;;;;;;;;;;;28.21;40.74;99787.38;5013226;28;878;-64
2023/06/08 08:59:05;;;;;;;;;;;;;;;28.82;41.49;99793.16;5011889;28;1173;-64
2023/06/08 09:01:33;;;;;;;;;;;;;;;30.52;38.07;99781.31;5013450;28;805;-64
2023/06/08 09:04:03;;;;;;;;;;;;;;;31.26;36.84;99784.47;5012989;28;893;-64
2023/06/08 09:06:30;;;;;;;;;;;;;;;31.69;36.60;99776.91;5013083;28;871;-63
2023/06/08 09:08:56;;;;;;;;;;;;;;;32.41;34.82;99770.88;5013107;28;887;-64
2023/06/08 09:11:23;;;;;;;;;;;;;;;32.53;33.74;99779.97;5012699;28;1443;-63
2023/06/08 09:14:05;;;;;;;;;;;;;;;32.62;32.87;99778.72;5012770;28;816;-63
2023/06/08 09:16:44;;;;;;;;;;;;;;;31.92;35.00;99780.00;5012941;28;809;-63
2023/06/08 09:19:11;;;;;;;;;;;;;;;31.72;35.15;99781.50;5012800;28;854;-62
2023/06/08 09:21:40;;;;;;;;;;;;;;;31.51;35.40;99767.88;5012749;28;1914;-62
2023/06/08 09:24:16;;;;;;;;;;;;;;;31.05;36.56;99770.06;5012645;28;885;-63
2023/06/08 09:26:45;;;;;;;;;;;;;;;30.92;36.07;99770.81;5012689;28;816;-63
2023/06/08 09:29:30;;;;;;;;;;;;;;;30.64;36.24;99774.13;5012560;28;874;-64
2023/06/08 09:31:56;;;;;;;;;;;;;;;29.62;38.49;99785.38;5012599;28;1025;-63
2023/06/08 09:34:23;;;;;;;;;;;;;;;29.34;37.56;99780.00;5012576;28;904;-64
2023/06/08 09:36:49;;;;;;;;;;;;;;;29.00;39.40;99772.56;5012626;28;1044;-63
2023/06/08 09:39:18;;;;;;;;;;;;;;;28.51;40.36;99766.78;5012690;28;875;-63
2023/06/08 10:10:47;;;;;;;;;;;;;;;27.32;40.35;99746.72;6161155;22;1559;-64
2023/06/08 10:13:15;;;;;;;;;;;;;;;27.51;39.45;99741.25;5010278;28;1769;-64
2023/06/08 10:15:41;;;;;;;;;;;;;;;27.69;38.83;99737.03;5010864;28;1207;-63
2023/06/08 10:18:08;;;;;;;;;;;;;;;28.00;39.85;99723.72;5012179;28;788;-63
2023/06/08 10:23:37;;;;;;;;;;;;;;;28.38;38.55;99716.22;5011654;28;1973;-63
2023/06/08 10:26:04;;;;;;;;;;;;;;;28.37;39.47;99723.19;5011518;28;804;-64
2023/06/08 10:28:32;;;;;;;;;;;;;;;28.44;39.73;99725.47;5011747;28;843;-62
2023/06/08 10:31:18;;;;;;;;;;;;;;;28.27;37.52;99722.75;5011757;28;848;-65
2023/06/08 10:33:45;;;;;;;;;;;;;;;28.21;37.07;99713.50;5011617;28;1077;-63
2023/06/08 10:36:12;;;;;;;;;;;;;;;28.66;38.08;99707.47;5011620;28;842;-63
2023/06/08 10:39:00;;;;;;;;;;;;;;;29.07;37.26;99712.22;5011758;28;863;-64
2023/06/08 10:41:38;;;;;;;;;;;;;;;29.41;37.74;99706.16;5011490;28;868;-63
2023/06/08 10:44:05;;;;;;;;;;;;;;;29.72;35.13;99703.97;5011688;28;836;-63
2023/06/08 10:46:42;;;;;;;;;;;;;;;29.77;35.06;99703.13;5011588;28;895;-65
2023/06/08 10:49:08;;;;;;;;;;;;;;;29.51;35.19;99701.63;5011606;28;784;-63
2023/06/08 10:51:44;;;;;;;;;;;;;;;29.80;35.80;99696.34;5011543;28;851;-64
2023/06/08 10:54:20;;;;;;;;;;;;;;;29.99;35.14;99679.22;5011613;28;815;-63
2023/06/08 10:56:51;;;;;;;;;;;;;;;30.12;33.79;99669.97;5011588;28;860;-64
2023/06/08 10:59:38;;;;;;;;;;;;;;;30.29;34.80;99681.13;5011440;28;946;-63
2023/06/08 11:02:06;;;;;;;;;;;;;;;30.54;33.93;99673.19;5011332;28;1882;-63
2023/06/08 11:04:33;;;;;;;;;;;;;;;30.96;33.09;99664.91;5011461;28;844;-63
2023/06/08 11:07:01;;;;;;;;;;;;;;;30.79;31.63;99673.78;5011359;28;876;-63
2023/06/08 11:09:31;;;;;;;;;;;;;;;31.08;32.20;99671.91;5011339;28;879;-63
2023/06/08 11:12:01;;;;;;;;;;;;;;;31.22;31.32;99678.41;5011006;28;1207;-63
2023/06/08 11:14:28;;;;;;;;;;;;;;;31.41;30.91;99672.56;5011343;28;883;-62
2023/06/08 11:16:55;;;;;;;;;;;;;;;31.79;31.12;99680.06;5011241;28;828;-63
2023/06/08 11:19:24;;;;;;;;;;;;;;;31.97;31.29;99678.34;5011339;28;847;-64
2023/06/08 11:21:56;;;;;;;;;;;;;;;31.73;31.48;99675.25;5011455;28;1970;-62
2023/06/08 11:24:27;;;;;;;;;;;;;;;31.82;31.14;99679.72;5011311;28;883;-63
2023/06/08 11:26:59;;;;;;;;;;;;;;;32.14;30.47;99670.16;5011204;28;827;-63
2023/06/08 11:29:26;;;;;;;;;;;;;;;31.87;30.59;99670.25;5011211;28;855;-64
2023/06/08 11:31:54;;;;;;;;;;;;;;;31.76;30.68;99649.75;5011085;28;864;-63
2023/06/08 11:34:22;;;;;;;;;;;;;;;31.86;30.75;99657.28;5011167;28;796;-64
2023/06/08 11:36:50;;;;;;;;;;;;;;;31.64;30.89;99649.97;5012416;28;824;-64
2023/06/08 11:39:16;;;;;;;;;;;;;;;31.80;31.10;99659.50;5013262;28;2338;-63
2023/06/08 11:41:46;;;;;;;;;;;;;;;31.92;30.47;99660.78;5014529;28;1882;-64
2023/06/08 11:44:15;;;;;;;;;;;;;;;32.08;30.01;99653.13;5014549;28;914;-62
2023/06/08 11:46:42;;;;;;;;;;;;;;;32.43;28.89;99664.50;5014815;28;845;-63
2023/06/08 11:49:12;;;;;;;;;;;;;;;32.61;28.45;99663.53;5014749;28;864;-64
2023/06/08 11:51:49;;;;;;;;;;;;;;;32.96;28.93;99662.03;5014402;28;801;-63
2023/06/08 11:54:16;;;;;;;;;;;;;;;33.51;27.77;99660.22;5014375;28;855;-63
2023/06/08 11:59:45;;;;;;;;;;;;;;;33.01;27.34;99657.50;5014350;28;627;-64
2023/06/08 12:02:12;;;;;;;;;;;;;;;33.42;26.68;99670.13;5014206;28;1938;-65
2023/06/08 12:04:40;;;;;;;;;;;;;;;33.63;25.87;99672.13;5014306;28;827;-65
2023/06/08 12:07:10;;;;;;;;;;;;;;;34.16;25.23;99663.69;5014451;28;843;-64
2023/06/08 12:09:37;;;;;;;;;;;;;;;34.76;24.66;99647.03;5014059;28;819;-63
2023/06/08 12:12:11;;;;;;;;;;;;;;;35.20;24.12;99650.97;5013982;28;1364;-64
2023/06/08 12:14:47;;;;;;;;;;;;;;;35.55;23.83;99644.09;5014084;28;933;-63
2023/06/08 12:17:16;;;;;;;;;;;;;;;35.60;24.21;99653.84;5013968;28;875;-65
2023/06/08 12:19:43;;;;;;;;;;;;;;;35.57;24.26;99641.41;5014212;28;816;-63
2023/06/08 12:22:11;;;;;;;;;;;;;;;35.67;24.62;99638.69;5014167;28;1976;-63
2023/06/08 12:24:38;;;;;;;;;;;;;;;35.86;23.50;99643.19;5013769;28;808;-65
2023/06/08 12:27:07;;;;;;;;;;;;;;;35.29;24.03;99638.84;5013834;28;827;-64
2023/06/08 12:29:36;;;;;;;;;;;;;;;35.79;24.08;99633.25;5013722;28;828;-65
2023/06/08 12:32:03;;;;;;;;;;;;;;;35.84;23.91;99620.00;5013864;28;820;-64
2023/06/08 12:34:30;;;;;;;;;;;;;;;36.08;23.66;99629.97;5012407;28;1171;-65
2023/06/08 12:36:57;;;;;;;;;;;;;;;35.99;23.30;99623.53;5013635;28;890;-64
2023/06/08 12:39:23;;;;;;;;;;;;;;;35.91;23.85;99625.72;5013476;28;883;-65
2023/06/08 12:41:50;;;;;;;;;;;;;;;35.69;23.53;99618.00;5013441;28;1886;-66
2023/06/08 12:44:17;;;;;;;;;;;;;;;35.37;23.96;99623.09;5013408;28;899;-64
2023/06/08 12:46:43;;;;;;;;;;;;;;;35.19;23.77;99610.00;5013205;28;907;-64
2023/06/08 12:49:10;;;;;;;;;;;;;;;35.21;24.03;99629.50;5013399;28;864;-64
2023/06/08 12:51:37;;;;;;;;;;;;;;;35.40;23.55;99629.03;5013323;28;902;-66
2023/06/08 12:54:04;;;;;;;;;;;;;;;35.32;23.70;99615.47;5013321;28;824;-64
2023/06/08 12:56:30;;;;;;;;;;;;;;;34.74;22.92;99620.25;5011962;28;1175;-64
2023/06/08 12:58:58;;;;;;;;;;;;;;;34.62;22.85;99624.84;5013205;28;1046;-63
2023/06/08 13:01:24;;;;;;;;;;;;;;;35.02;22.70;99624.97;5013118;28;904;-64
2023/06/08 13:03:52;;;;;;;;;;;;;;;34.87;22.78;99628.63;5013062;28;1894;-64
2023/06/08 13:06:19;;;;;;;;;;;;;;;34.57;23.58;99629.44;5012914;28;970;-65
2023/06/08 13:08:46;;;;;;;;;;;;;;;34.54;23.03;99616.22;5013137;28;906;-64
2023/06/08 13:11:12;;;;;;;;;;;;;;;33.89;23.92;99625.97;5012701;28;1183;-64
2023/06/08 13:13:38;;;;;;;;;;;;;;;33.33;25.00;99624.84;5011652;28;1325;-65
2023/06/08 13:16:05;;;;;;;;;;;;;;;33.42;24.72;99615.69;5012863;28;899;-64
2023/06/08 13:18:32;;;;;;;;;;;;;;;33.56;24.89;99613.44;5012739;28;896;-63
2023/06/08 13:20:58;;;;;;;;;;;;;;;33.45;25.40;99617.41;5012807;28;917;-64
2023/06/08 13:23:25;;;;;;;;;;;;;;;33.04;26.14;99624.88;5012787;28;1976;-65
2023/06/08 13:25:52;;;;;;;;;;;;;;;32.79;25.99;99618.81;5012680;28;864;-65
2023/06/08 13:28:18;;;;;;;;;;;;;;;32.38;27.12;99616.81;5012585;28;859;-62
2023/06/08 13:30:50;;;;;;;;;;;;;;;31.99;27.75;99610.00;5012663;28;875;-63
2023/06/08 13:33:17;;;;;;;;;;;;;;;31.88;27.71;99606.06;5012576;28;910;-63
2023/06/08 13:35:44;;;;;;;;;;;;;;;32.02;28.17;99601.06;5012455;28;812;-64
2023/06/08 13:38:11;;;;;;;;;;;;;;;32.02;27.54;99606.03;5011108;28;1508;-63
2023/06/08 13:40:38;;;;;;;;;;;;;;;32.35;28.12;99610.88;5012718;28;927;-63
2023/06/08 13:43:09;;;;;;;;;;;;;;;32.48;28.34;99610.00;5012290;28;1958;-65
2023/06/08 13:45:36;;;;;;;;;;;;;;;32.50;28.32;99609.47;5012379;28;828;-65
2023/06/08 13:48:04;;;;;;;;;;;;;;;32.04;27.98;99603.38;5012304;28;871;-64
2023/06/08 13:50:31;;;;;;;;;;;;;;;32.01;28.39;99595.94;5012231;28;878;-64
2023/06/08 13:52:57;;;;;;;;;;;;;;;32.06;28.16;99607.19;5012235;28;886;-64